createdAt,value
2023-04-16T00:00:50.282Z,97316.03
2023-04-16T00:03:17.139Z,97319.94
2023-04-16T00:05:43.792Z,97318.75
2023-04-16T00:08:10.377Z,97321.47
2023-04-16T00:10:37.153Z,97311.78
2023-04-16T00:13:03.703Z,97316.41
2023-04-16T00:15:30.199Z,97316.84
2023-04-16T00:17:56.766Z,97323.06
2023-04-16T00:20:23.521Z,97322.69
2023-04-16T00:22:51.524Z,97321.91
2023-04-16T00:25:18.027Z,97330.88
2023-04-16T00:27:44.532Z,97323.44
2023-04-16T00:30:11.348Z,97328.53
2023-04-16T00:32:37.892Z,97328.59
2023-04-16T00:35:04.861Z,97326.66
2023-04-16T00:37:31.431Z,97320.78
2023-04-16T00:39:57.947Z,97323.56
2023-04-16T00:42:24.487Z,97321.63
2023-04-16T00:44:51.015Z,97318.53
2023-04-16T00:47:17.687Z,97324.00
2023-04-16T00:49:44.513Z,97327.53
2023-04-16T00:52:12.055Z,97325.97
2023-04-16T00:54:39.669Z,97324.78
2023-04-16T00:57:06.474Z,97325.53
2023-04-16T00:59:35.728Z,97323.28
2023-04-16T01:02:02.315Z,97324.78
2023-04-16T01:04:31.076Z,97326.31
2023-04-16T01:06:57.772Z,97328.97
2023-04-16T01:09:24.332Z,97322.09
2023-04-16T01:11:50.857Z,97327.91
2023-04-16T01:14:17.387Z,97336.09
2023-04-16T01:16:46.247Z,97334.16
2023-04-16T01:19:12.756Z,97333.34
2023-04-16T01:21:39.290Z,97338.06
2023-04-16T01:24:06.060Z,97340.38
2023-04-16T01:26:32.638Z,97341.56
2023-04-16T01:29:00.082Z,97345.47
2023-04-16T01:31:26.674Z,97347.38
2023-04-16T01:33:53.284Z,97340.81
2023-04-16T01:36:19.977Z,97351.66
2023-04-16T01:38:46.607Z,97351.31
2023-04-16T01:41:13.231Z,97358.31
2023-04-16T01:43:40.481Z,97356.75
2023-04-16T01:46:24.092Z,97361.38
2023-04-16T01:48:50.673Z,97352.84
2023-04-16T01:51:17.211Z,97359.06
2023-04-16T01:53:43.770Z,97363.34
2023-04-16T01:56:10.289Z,97365.31
2023-04-16T01:58:36.847Z,97359.13
2023-04-16T02:01:04.572Z,97364.50
2023-04-16T02:03:31.708Z,97360.25
2023-04-16T02:05:58.361Z,97356.78
2023-04-16T02:08:24.955Z,97364.56
2023-04-16T02:10:51.478Z,97357.94
2023-04-16T02:13:18.050Z,97366.88
2023-04-16T02:15:50.422Z,97359.13
2023-04-16T02:18:17.149Z,97356.03
2023-04-16T02:20:47.121Z,97357.59
2023-04-16T02:23:15.222Z,97361.06
2023-04-16T02:25:43.231Z,97363.41
2023-04-16T02:28:11.070Z,97359.13
2023-04-16T02:30:38.429Z,97365.72
2023-04-16T02:33:07.443Z,97375.03
2023-04-16T02:35:34.917Z,97375.41
2023-04-16T02:38:02.161Z,97375.81
2023-04-16T02:40:29.646Z,97373.09
2023-04-16T02:42:56.363Z,97379.31
2023-04-16T02:45:23.817Z,97387.06
2023-04-16T02:47:50.855Z,97385.13
2023-04-16T02:50:18.082Z,97376.59
2023-04-16T02:52:44.644Z,97393.28
2023-04-16T02:55:11.544Z,97383.97
2023-04-16T02:57:38.114Z,97374.25
2023-04-16T03:00:05.253Z,97387.84
2023-04-16T03:02:31.988Z,97392.53
2023-04-16T03:04:58.650Z,97384.34
2023-04-16T03:07:25.345Z,97385.53
2023-04-16T03:09:52.064Z,97390.56
2023-04-16T03:12:18.558Z,97383.97
2023-04-16T03:14:45.148Z,97385.53
2023-04-16T03:17:11.689Z,97395.63
2023-04-16T03:19:38.186Z,97399.88
2023-04-16T03:22:05.030Z,97398.75
2023-04-16T03:24:32.365Z,97400.28
2023-04-16T03:26:59.107Z,97401.44
2023-04-16T03:29:26.841Z,97410.38
2023-04-16T03:31:53.487Z,97403.00
2023-04-16T03:34:20.053Z,97403.38
2023-04-16T03:36:46.580Z,97410.00
2023-04-16T03:39:13.118Z,97406.09
2023-04-16T03:41:39.664Z,97412.69
2023-04-16T03:44:06.330Z,97404.94
2023-04-16T03:46:33.024Z,97415.81
2023-04-16T03:48:59.574Z,97417.72
2023-04-16T03:51:26.585Z,97418.16
2023-04-16T03:53:53.152Z,97416.59
2023-04-16T03:56:19.802Z,97418.53
2023-04-16T03:58:46.408Z,97418.16
2023-04-16T04:01:12.982Z,97419.69
2023-04-16T04:03:39.863Z,97418.94
2023-04-16T04:06:08.488Z,97417.38
2023-04-16T04:08:35.386Z,97424.75
2023-04-16T04:11:01.886Z,97424.78
2023-04-16T04:13:28.422Z,97423.19
2023-04-16T04:15:54.980Z,97437.19
2023-04-16T04:18:21.549Z,97430.56
2023-04-16T04:20:48.067Z,97432.91
2023-04-16T04:23:14.635Z,97432.13
2023-04-16T04:25:41.161Z,97439.91
2023-04-16T04:28:07.709Z,97437.56
2023-04-16T04:30:35.915Z,97438.34
2023-04-16T04:33:02.654Z,97443.00
2023-04-16T04:35:29.427Z,97447.28
2023-04-16T04:37:55.930Z,97453.88
2023-04-16T04:40:22.626Z,97445.72
2023-04-16T04:42:49.198Z,97445.34
2023-04-16T04:45:16.180Z,97450.00
2023-04-16T04:47:42.792Z,97449.22
2023-04-16T04:50:09.830Z,97456.19
2023-04-16T04:52:36.439Z,97459.31
2023-04-16T04:55:03.130Z,97459.31
2023-04-16T04:57:29.672Z,97453.88
2023-04-16T04:59:56.525Z,97450.75
2023-04-16T05:02:23.253Z,97454.66
2023-04-16T05:04:50.193Z,97459.69
2023-04-16T05:07:17.043Z,97462.41
2023-04-16T05:09:43.576Z,97461.25
2023-04-16T05:12:10.076Z,97467.09
2023-04-16T05:14:36.595Z,97458.94
2023-04-16T05:17:03.211Z,97459.31
2023-04-16T05:19:29.824Z,97467.84
2023-04-16T05:21:56.353Z,97468.63
2023-04-16T05:24:23.400Z,97474.84
2023-04-16T05:26:49.923Z,97476.38
2023-04-16T05:29:16.447Z,97477.16
2023-04-16T05:31:43.019Z,97479.47
2023-04-16T05:34:09.562Z,97477.56
2023-04-16T05:36:36.133Z,97485.31
2023-04-16T05:39:02.829Z,97493.06
2023-04-16T05:41:29.454Z,97493.84
2023-04-16T05:43:56.422Z,97487.25
2023-04-16T05:46:25.351Z,97495.78
2023-04-16T05:48:52.149Z,97492.28
2023-04-16T05:51:18.893Z,97498.13
2023-04-16T05:53:45.768Z,97498.88
2023-04-16T05:56:12.301Z,97499.66
2023-04-16T05:58:38.791Z,97498.03
2023-04-16T06:01:05.429Z,97504.66
2023-04-16T06:03:31.981Z,97496.44
2023-04-16T06:05:58.688Z,97505.38
2023-04-16T06:08:25.444Z,97510.81
2023-04-16T06:10:52.017Z,97509.63
2023-04-16T06:13:18.817Z,97502.25
2023-04-16T06:15:45.537Z,97508.47
2023-04-16T06:18:12.125Z,97503.78
2023-04-16T06:20:38.708Z,97502.56
2023-04-16T06:23:05.303Z,97509.09
2023-04-16T06:25:31.821Z,97501.34
2023-04-16T06:27:58.635Z,97498.91
2023-04-16T06:30:25.305Z,97502.88
2023-04-16T06:32:52.249Z,97504.78
2023-04-16T06:35:20.268Z,97504.03
2023-04-16T06:37:47.251Z,97510.22
2023-04-16T06:40:16.647Z,97502.91
2023-04-16T06:42:45.304Z,97505.59
2023-04-16T06:45:12.589Z,97511.63
2023-04-16T06:47:39.232Z,97507.16
2023-04-16T06:50:06.495Z,97511.63
2023-04-16T06:52:33.309Z,97503.94
2023-04-16T06:54:59.808Z,97504.69
2023-04-16T06:57:26.342Z,97508.22
2023-04-16T06:59:52.973Z,97518.38
2023-04-16T07:02:19.597Z,97510.13
2023-04-16T07:04:46.393Z,97513.06
2023-04-16T07:07:12.898Z,97511.19
2023-04-16T07:09:39.481Z,97513.13
2023-04-16T07:12:07.269Z,97509.88
2023-04-16T07:14:33.891Z,97517.81
2023-04-16T07:17:00.498Z,97514.88
2023-04-16T07:19:30.642Z,97525.50
2023-04-16T07:21:57.262Z,97518.50
2023-04-16T07:24:23.815Z,97520.78
2023-04-16T07:26:50.406Z,97519.31
2023-04-16T07:29:16.937Z,97520.72
2023-04-16T07:31:43.578Z,97519.66
2023-04-16T07:34:10.379Z,97520.47
2023-04-16T07:36:37.085Z,97527.25
2023-04-16T07:39:05.678Z,97530.84
2023-04-16T07:41:32.325Z,97523.38
2023-04-16T07:43:58.885Z,97521.94
2023-04-16T07:46:28.352Z,97519.78
2023-04-16T07:48:59.978Z,97521.81
2023-04-16T07:51:26.570Z,97511.59
2023-04-16T07:53:53.284Z,97524.81
2023-04-16T07:56:19.936Z,97511.47
2023-04-16T07:58:46.427Z,97527.50
2023-04-16T08:01:13.719Z,97523.09
2023-04-16T08:03:40.520Z,97523.28
2023-04-16T08:06:07.223Z,97524.34
2023-04-16T08:08:33.785Z,97517.75
2023-04-16T08:11:00.303Z,97514.34
2023-04-16T08:13:26.906Z,97519.06
2023-04-16T08:15:53.462Z,97514.75
2023-04-16T08:18:20.035Z,97511.69
2023-04-16T08:20:46.575Z,97517.19
2023-04-16T08:23:13.115Z,97516.81
2023-04-16T08:25:39.695Z,97525.22
2023-04-16T08:28:06.542Z,97530.78
2023-04-16T08:30:33.634Z,97523.84
2023-04-16T08:33:00.398Z,97526.59
2023-04-16T08:35:27.369Z,97522.25
2023-04-16T08:37:54.407Z,97526.31
2023-04-16T08:40:21.095Z,97539.09
2023-04-16T08:42:58.492Z,97537.19
2023-04-16T08:45:27.088Z,97535.91
2023-04-16T08:47:56.085Z,97542.84
2023-04-16T08:50:24.703Z,97543.59
2023-04-16T08:52:53.903Z,97541.47
2023-04-16T08:55:29.901Z,97544.94
2023-04-16T08:58:01.552Z,97546.97
2023-04-16T09:00:31.635Z,97551.38
2023-04-16T09:02:58.375Z,97550.66
2023-04-16T09:05:26.421Z,97550.53
2023-04-16T09:07:54.573Z,97547.50
2023-04-16T09:10:21.971Z,97553.28
2023-04-16T09:12:48.490Z,97555.75
2023-04-16T09:15:15.229Z,97561.47
2023-04-16T09:17:41.964Z,97562.00
2023-04-16T09:20:09.666Z,97569.69
2023-04-16T09:22:36.742Z,97572.66
2023-04-16T09:25:03.632Z,97577.19
2023-04-16T09:27:31.557Z,97577.25
2023-04-16T09:29:58.379Z,97575.97
2023-04-16T09:32:29.902Z,97576.75
2023-04-16T09:35:01.817Z,97579.81
2023-04-16T09:37:30.501Z,97581.97
2023-04-16T09:40:03.065Z,97580.63
2023-04-16T09:42:31.991Z,97578.63
2023-04-16T09:45:01.394Z,97581.88
2023-04-16T09:47:44.134Z,97580.69
2023-04-16T09:50:18.196Z,97578.25
2023-04-16T09:52:48.506Z,97582.31
2023-04-16T09:55:15.510Z,97576.31
2023-04-16T09:57:42.059Z,97583.16
2023-04-16T10:00:10.306Z,97587.84
2023-04-16T10:02:42.136Z,97588.28
2023-04-16T10:05:09.543Z,97585.47
2023-04-16T10:07:37.464Z,97589.59
2023-04-16T10:10:04.875Z,97593.09
2023-04-16T10:12:33.027Z,97597.81
2023-04-16T10:14:59.898Z,97596.28
2023-04-16T10:17:30.183Z,97598.25
2023-04-16T10:19:58.553Z,97595.91
2023-04-16T10:22:26.351Z,97593.31
2023-04-16T10:24:53.725Z,97601.09
2023-04-16T10:27:20.834Z,97607.56
2023-04-16T10:29:48.978Z,97614.91
2023-04-16T10:32:17.728Z,97615.06
2023-04-16T10:34:44.551Z,97611.03
2023-04-16T10:37:11.133Z,97610.13
2023-04-16T10:39:38.295Z,97612.28
2023-04-16T10:42:09.330Z,97607.25
2023-04-16T10:44:36.729Z,97603.78
2023-04-16T10:47:03.628Z,97606.22
2023-04-16T10:49:30.444Z,97610.84
2023-04-16T10:51:58.257Z,97610.38
2023-04-16T10:54:27.160Z,97619.50
2023-04-16T10:56:56.516Z,97611.63
2023-04-16T10:59:24.105Z,97622.75
2023-04-16T11:01:53.094Z,97623.41
2023-04-16T11:04:19.814Z,97612.84
2023-04-16T11:07:06.571Z,97614.38
2023-04-16T11:09:49.843Z,97619.69
2023-04-16T11:12:18.900Z,97616.56
2023-04-16T11:14:51.527Z,97612.84
2023-04-16T11:17:19.811Z,97616.63
2023-04-16T11:19:47.365Z,97615.56
2023-04-16T11:22:17.157Z,97615.38
2023-04-16T11:24:45.374Z,97602.53
2023-04-16T11:27:15.518Z,97610.34
2023-04-16T11:29:44.601Z,97609.84
2023-04-16T11:32:21.984Z,97611.94
2023-04-16T11:34:48.607Z,97613.22
2023-04-16T11:37:15.178Z,97612.94
2023-04-16T11:39:54.357Z,97607.09
2023-04-16T11:42:22.941Z,97615.88
2023-04-16T11:44:57.628Z,97616.88
2023-04-16T11:47:24.936Z,97619.53
2023-04-16T11:49:51.761Z,97620.09
2023-04-16T11:52:28.522Z,97615.09
2023-04-16T11:54:55.749Z,97620.41
2023-04-16T11:57:29.560Z,97625.19
2023-04-16T12:00:01.635Z,97619.69
2023-04-16T12:02:40.041Z,97621.47
2023-04-16T12:05:27.802Z,97620.19
2023-04-16T12:07:55.417Z,97628.06
2023-04-16T12:10:22.043Z,97628.38
2023-04-16T12:12:48.561Z,97624.22
2023-04-16T12:15:15.698Z,97626.09
2023-04-16T12:17:42.292Z,97624.78
2023-04-16T12:20:10.019Z,97623.75
2023-04-16T12:22:43.996Z,97631.38
2023-04-16T12:25:18.222Z,97624.84
2023-04-16T12:27:53.958Z,97627.66
2023-04-16T12:30:23.236Z,97622.53
2023-04-16T12:32:52.492Z,97624.56
2023-04-16T12:35:33.442Z,97624.44
2023-04-16T12:38:01.165Z,97617.66
2023-04-16T12:40:27.902Z,97625.31
2023-04-16T12:42:55.041Z,97622.44
2023-04-16T12:45:22.406Z,97623.09
2023-04-16T12:47:50.648Z,97631.34
2023-04-16T12:50:18.119Z,97628.41
2023-04-16T12:52:44.808Z,97632.25
2023-04-16T12:55:12.580Z,97627.78
2023-04-16T12:57:39.130Z,97623.84
2023-04-16T13:00:06.799Z,97624.38
2023-04-16T13:02:33.555Z,97621.44
2023-04-16T13:05:00.290Z,97622.53
2023-04-16T13:07:28.329Z,97625.25
2023-04-16T13:09:55.059Z,97625.22
2023-04-16T13:12:21.627Z,97621.78
2023-04-16T13:14:48.180Z,97626.19
2023-04-16T13:17:15.218Z,97622.16
2023-04-16T13:19:41.751Z,97616.72
2023-04-16T13:22:08.538Z,97618.56
2023-04-16T13:24:35.135Z,97613.06
2023-04-16T13:27:01.732Z,97616.63
2023-04-16T13:29:28.512Z,97607.94
2023-04-16T13:31:55.118Z,97614.53
2023-04-16T13:34:21.830Z,97612.34
2023-04-16T13:36:48.594Z,97625.00
2023-04-16T13:39:15.820Z,97616.19
2023-04-16T13:41:42.852Z,97613.94
2023-04-16T13:44:09.475Z,97615.81
2023-04-16T13:46:36.050Z,97623.28
2023-04-16T13:49:02.700Z,97619.78
2023-04-16T13:51:29.377Z,97620.81
2023-04-16T13:53:56.385Z,97614.31
2023-04-16T13:56:23.047Z,97613.53
2023-04-16T13:58:49.744Z,97610.97
2023-04-16T14:01:17.390Z,97610.19
2023-04-16T14:03:44.156Z,97612.13
2023-04-16T14:06:10.935Z,97609.69
2023-04-16T14:08:38.436Z,97613.78
2023-04-16T14:11:06.511Z,97613.47
2023-04-16T14:13:33.135Z,97613.63
2023-04-16T14:15:59.839Z,97612.09
2023-04-16T14:18:26.376Z,97623.13
2023-04-16T14:20:52.974Z,97610.25
2023-04-16T14:23:19.503Z,97616.25
2023-04-16T14:25:46.068Z,97614.75
2023-04-16T14:28:14.308Z,97610.91
2023-04-16T14:30:42.210Z,97612.16
2023-04-16T14:33:08.716Z,97616.06
2023-04-16T14:35:36.129Z,97613.88
2023-04-16T14:38:03.104Z,97617.03
2023-04-16T14:40:30.099Z,97618.50
2023-04-16T14:42:56.701Z,97620.56
2023-04-16T14:45:26.311Z,97619.03
2023-04-16T14:47:54.029Z,97617.16
2023-04-16T14:50:20.711Z,97626.88
2023-04-16T14:52:47.284Z,97618.44
2023-04-16T14:55:13.892Z,97625.38
2023-04-16T14:57:41.632Z,97625.91
2023-04-16T15:00:10.569Z,97626.59
2023-04-16T15:02:37.697Z,97634.97
2023-04-16T15:05:05.035Z,97624.84
2023-04-16T15:07:31.825Z,97624.75
2023-04-16T15:09:58.356Z,97632.06
2023-04-16T15:12:25.132Z,97633.75
2023-04-16T15:14:51.666Z,97632.28
2023-04-16T15:17:18.269Z,97632.13
2023-04-16T15:19:44.900Z,97639.44
2023-04-16T15:22:11.465Z,97636.69
2023-04-16T15:24:38.055Z,97634.31
2023-04-16T15:27:08.447Z,97634.75
2023-04-16T15:29:36.223Z,97641.31
2023-04-16T15:32:02.785Z,97634.63
2023-04-16T15:34:30.451Z,97643.59
2023-04-16T15:36:57.019Z,97641.31
2023-04-16T15:39:23.528Z,97638.16
2023-04-16T15:42:00.502Z,97635.59
2023-04-16T15:44:27.992Z,97649.44
2023-04-16T15:46:54.584Z,97649.59
2023-04-16T15:49:21.087Z,97647.38
2023-04-16T15:51:47.650Z,97654.00
2023-04-16T15:54:14.203Z,97646.84
2023-04-16T15:56:40.791Z,97651.84
2023-04-16T15:59:08.209Z,97659.56
2023-04-16T16:01:34.974Z,97655.88
2023-04-16T16:04:01.777Z,97652.38
2023-04-16T16:06:29.077Z,97658.56
2023-04-16T16:08:55.860Z,97655.53
2023-04-16T16:11:22.443Z,97653.94
2023-04-16T16:13:48.982Z,97657.44
2023-04-16T16:16:15.552Z,97661.47
2023-04-16T16:18:42.517Z,97656.91
2023-04-16T16:21:09.075Z,97663.34
2023-04-16T16:23:35.680Z,97664.41
2023-04-16T16:26:02.655Z,97661.63
2023-04-16T16:28:29.266Z,97670.16
2023-04-16T16:30:55.880Z,97666.97
2023-04-16T16:33:22.699Z,97666.53
2023-04-16T16:35:49.264Z,97675.56
2023-04-16T16:38:15.968Z,97671.59
2023-04-16T16:40:42.483Z,97670.66
2023-04-16T16:43:09.110Z,97680.88
2023-04-16T16:45:36.285Z,97677.88
2023-04-16T16:48:03.995Z,97681.72
2023-04-16T16:50:33.706Z,97683.31
2023-04-16T16:53:00.567Z,97682.97
2023-04-16T16:55:27.155Z,97680.56
2023-04-16T16:57:53.814Z,97687.09
2023-04-16T17:00:21.931Z,97686.03
2023-04-16T17:02:51.396Z,97695.03
2023-04-16T17:05:18.298Z,97698.13
2023-04-16T17:07:44.875Z,97698.03
2023-04-16T17:10:13.467Z,97700.19
2023-04-16T17:12:40.011Z,97694.94
2023-04-16T17:15:06.986Z,97707.34
2023-04-16T17:17:35.232Z,97706.84
2023-04-16T17:20:03.498Z,97714.50
2023-04-16T17:22:30.467Z,97704.81
2023-04-16T17:24:57.011Z,97722.09
2023-04-16T17:27:23.644Z,97709.59
2023-04-16T17:29:50.174Z,97723.06
2023-04-16T17:32:16.743Z,97739.41
2023-04-16T17:34:43.367Z,97731.56
2023-04-16T17:37:09.958Z,97722.13
2023-04-16T17:39:36.511Z,97724.69
2023-04-16T17:42:04.164Z,97731.00
2023-04-16T17:44:30.696Z,97726.31
2023-04-16T17:46:57.270Z,97730.13
2023-04-16T17:49:23.824Z,97733.72
2023-04-16T17:51:50.369Z,97735.19
2023-04-16T17:54:16.874Z,97735.63
2023-04-16T17:56:43.476Z,97738.34
2023-04-16T17:59:10.050Z,97741.44
2023-04-16T18:01:36.727Z,97744.56
2023-04-16T18:04:03.507Z,97745.34
2023-04-16T18:06:31.145Z,97749.56
2023-04-16T18:08:57.747Z,97749.22
2023-04-16T18:11:24.345Z,97750.41
2023-04-16T18:13:52.969Z,97754.06
2023-04-16T18:16:19.963Z,97749.31
2023-04-16T18:18:46.648Z,97760.34
2023-04-16T18:21:13.273Z,97763.91
2023-04-16T18:23:39.887Z,97754.06
2023-04-16T18:26:08.505Z,97763.47
2023-04-16T18:28:41.643Z,97767.56
2023-04-16T18:31:09.052Z,97771.41
2023-04-16T18:33:53.841Z,97771.44
2023-04-16T18:36:22.402Z,97767.56
2023-04-16T18:39:00.002Z,97771.50
2023-04-16T18:41:31.458Z,97776.63
2023-04-16T18:43:58.142Z,97784.88
2023-04-16T18:46:25.467Z,97776.25
2023-04-16T18:48:52.341Z,97784.88
2023-04-16T18:51:18.981Z,97781.75
2023-04-16T18:53:47.087Z,97792.03
2023-04-16T18:56:16.873Z,97797.53
2023-04-16T18:58:44.058Z,97794.78
2023-04-16T19:01:14.096Z,97806.91
2023-04-16T19:03:40.810Z,97800.59
2023-04-16T19:06:08.033Z,97809.69
2023-04-16T19:08:34.554Z,97806.19
2023-04-16T19:11:01.128Z,97812.44
2023-04-16T19:13:27.737Z,97813.25
2023-04-16T19:16:01.625Z,97811.66
2023-04-16T19:18:28.470Z,97813.25
2023-04-16T19:21:01.513Z,97815.25
2023-04-16T19:23:28.704Z,97824.22
2023-04-16T19:25:58.190Z,97818.34
2023-04-16T19:28:25.270Z,97825.00
2023-04-16T19:30:52.576Z,97817.19
2023-04-16T19:33:19.193Z,97821.13
2023-04-16T19:35:46.834Z,97829.00
2023-04-16T19:38:13.588Z,97824.69
2023-04-16T19:40:41.378Z,97829.00
2023-04-16T19:43:08.046Z,97835.06
2023-04-16T19:45:34.608Z,97826.97
2023-04-16T19:48:01.326Z,97836.72
2023-04-16T19:50:27.916Z,97842.88
2023-04-16T19:52:54.544Z,97842.66
2023-04-16T19:55:21.102Z,97839.16
2023-04-16T19:57:48.154Z,97827.00
2023-04-16T20:00:15.148Z,97830.16
2023-04-16T20:02:41.906Z,97826.22
2023-04-16T20:05:09.107Z,97838.66
2023-04-16T20:07:35.760Z,97838.78
2023-04-16T20:10:03.121Z,97840.31
2023-04-16T20:12:29.794Z,97841.16
2023-04-16T20:14:56.318Z,97833.47
2023-04-16T20:17:22.868Z,97830.66
2023-04-16T20:19:51.379Z,97835.81
2023-04-16T20:22:18.894Z,97825.66
2023-04-16T20:24:47.787Z,97829.59
2023-04-16T20:27:15.415Z,97826.50
2023-04-16T20:29:42.199Z,97831.97
2023-04-16T20:32:08.976Z,97834.28
2023-04-16T20:34:36.743Z,97835.88
2023-04-16T20:37:03.551Z,97835.06
2023-04-16T20:39:34.298Z,97833.84
2023-04-16T20:42:04.247Z,97820.94
2023-04-16T20:44:40.584Z,97830.41
2023-04-16T20:47:11.849Z,97830.38
2023-04-16T20:49:38.610Z,97826.41
2023-04-16T20:52:05.640Z,97828.75
2023-04-16T20:54:32.206Z,97830.69
2023-04-16T20:56:59.001Z,97837.41
2023-04-16T20:59:25.892Z,97833.44
2023-04-16T21:01:52.554Z,97842.03
2023-04-16T21:04:19.404Z,97837.03
2023-04-16T21:06:46.838Z,97833.47
2023-04-16T21:09:13.636Z,97837.47
2023-04-16T21:11:40.616Z,97837.50
2023-04-16T21:14:07.197Z,97840.97
2023-04-16T21:16:34.009Z,97842.94
2023-04-16T21:19:00.617Z,97837.09
2023-04-16T21:21:27.684Z,97841.03
2023-04-16T21:23:54.245Z,97837.94
2023-04-16T21:26:21.106Z,97840.72
2023-04-16T21:28:48.935Z,97844.66
2023-04-16T21:31:15.534Z,97845.03
2023-04-16T21:33:42.105Z,97841.56
2023-04-16T21:36:08.890Z,97838.47
2023-04-16T21:38:35.648Z,97850.97
2023-04-16T21:41:02.295Z,97861.91
2023-04-16T21:43:30.731Z,97847.47
2023-04-16T21:45:57.709Z,97850.19
2023-04-16T21:48:24.506Z,97849.41
2023-04-16T21:50:59.281Z,97855.63
2023-04-16T21:53:28.201Z,97857.97
2023-04-16T21:55:54.825Z,97857.53
2023-04-16T21:58:21.394Z,97868.09
2023-04-16T22:00:47.973Z,97864.97
2023-04-16T22:03:15.054Z,97860.38
2023-04-16T22:05:41.710Z,97858.34
2023-04-16T22:08:23.319Z,97856.03
2023-04-16T22:10:50.901Z,97852.53
2023-04-16T22:13:18.025Z,97853.69
2023-04-16T22:15:44.576Z,97850.97
2023-04-16T22:18:11.604Z,97852.53
2023-04-16T22:20:39.217Z,97847.09
2023-04-16T22:23:06.821Z,97843.16
2023-04-16T22:25:33.631Z,97848.31
2023-04-16T22:28:01.674Z,97856.53
2023-04-16T22:30:28.310Z,97852.66
2023-04-16T22:32:54.934Z,97857.31
2023-04-16T22:35:21.560Z,97853.00
2023-04-16T22:37:48.120Z,97852.22
2023-04-16T22:40:14.975Z,97849.91
2023-04-16T22:42:41.651Z,97846.00
2023-04-16T22:45:08.935Z,97844.81
2023-04-16T22:47:35.525Z,97846.00
2023-04-16T22:50:03.429Z,97852.66
2023-04-16T22:52:30.010Z,97852.66
2023-04-16T22:54:56.574Z,97841.41
2023-04-16T22:57:25.695Z,97844.94
2023-04-16T22:59:53.405Z,97852.34
2023-04-16T23:02:20.884Z,97849.59
2023-04-16T23:04:48.119Z,97857.38
2023-04-16T23:07:15.756Z,97850.41
2023-04-16T23:09:42.514Z,97848.84
2023-04-16T23:12:09.082Z,97849.25
2023-04-16T23:14:37.028Z,97854.28
2023-04-16T23:17:03.788Z,97854.31
2023-04-16T23:19:31.292Z,97844.16
2023-04-16T23:21:57.986Z,97848.84
2023-04-16T23:24:24.588Z,97848.84
2023-04-16T23:26:52.582Z,97850.41
2023-04-16T23:29:19.900Z,97854.34
2023-04-16T23:31:46.449Z,97853.53
2023-04-16T23:34:13.070Z,97849.63
2023-04-16T23:36:40.787Z,97846.13
2023-04-16T23:39:07.475Z,97847.31
2023-04-16T23:41:34.363Z,97853.94
2023-04-16T23:44:00.925Z,97852.38
2023-04-16T23:46:27.584Z,97849.28
2023-04-16T23:48:55.428Z,97838.78
2023-04-16T23:51:22.278Z,97834.88
2023-04-16T23:53:48.883Z,97835.66
2023-04-16T23:56:16.424Z,97839.56
2023-04-16T23:58:43.027Z,97840.34
